sensor_id;sensor_type;location;lat;lon;timestamp;P1;durP1;ratioP1;P2;durP2;ratioP2
83560;SDS011;73534;52.584;13.392;2024-02-04T00:01:57;8.80;;;3.28;;
83560;SDS011;73534;52.584;13.392;2024-02-04T00:04:22;4.75;;;2.83;;
83560;SDS011;73534;52.584;13.392;2024-02-04T00:06:48;11.52;;;3.25;;
83560;SDS011;73534;52.584;13.392;2024-02-04T00:09:13;7.85;;;3.15;;
83560;SDS011;73534;52.584;13.392;2024-02-04T00:11:38;10.13;;;3.28;;
83560;SDS011;73534;52.584;13.392;2024-02-04T00:14:03;6.53;;;2.70;;
83560;SDS011;73534;52.584;13.392;2024-02-04T00:16:29;12.15;;;3.17;;
83560;SDS011;73534;52.584;13.392;2024-02-04T00:18:54;9.02;;;2.90;;
83560;SDS011;73534;52.584;13.392;2024-02-04T00:21:19;11.20;;;2.72;;
83560;SDS011;73534;52.584;13.392;2024-02-04T00:23:44;7.73;;;3.00;;
83560;SDS011;73534;52.584;13.392;2024-02-04T00:26:09;6.03;;;2.95;;
83560;SDS011;73534;52.584;13.392;2024-02-04T00:28:34;7.38;;;3.33;;
83560;SDS011;73534;52.584;13.392;2024-02-04T00:31:00;10.75;;;3.22;;
83560;SDS011;73534;52.584;13.392;2024-02-04T00:33:25;6.77;;;2.80;;
83560;SDS011;73534;52.584;13.392;2024-02-04T00:35:50;6.07;;;2.47;;
83560;SDS011;73534;52.584;13.392;2024-02-04T00:38:15;6.57;;;2.60;;
83560;SDS011;73534;52.584;13.392;2024-02-04T00:40:40;7.90;;;3.17;;
83560;SDS011;73534;52.584;13.392;2024-02-04T00:43:05;13.73;;;3.65;;
83560;SDS011;73534;52.584;13.392;2024-02-04T00:45:30;10.23;;;3.63;;
83560;SDS011;73534;52.584;13.392;2024-02-04T00:47:56;6.53;;;3.03;;
83560;SDS011;73534;52.584;13.392;2024-02-04T00:50:21;10.60;;;5.00;;
83560;SDS011;73534;52.584;13.392;2024-02-04T00:52:46;7.90;;;3.10;;
83560;SDS011;73534;52.584;13.392;2024-02-04T00:55:11;6.60;;;2.40;;
83560;SDS011;73534;52.584;13.392;2024-02-04T00:57:36;6.05;;;2.92;;
83560;SDS011;73534;52.584;13.392;2024-02-04T01:00:02;9.70;;;2.65;;
83560;SDS011;73534;52.584;13.392;2024-02-04T01:02:27;7.38;;;2.20;;
83560;SDS011;73534;52.584;13.392;2024-02-04T01:04:52;5.97;;;2.73;;
83560;SDS011;73534;52.584;13.392;2024-02-04T01:07:17;11.02;;;3.72;;
83560;SDS011;73534;52.584;13.392;2024-02-04T01:09:43;9.30;;;2.63;;
83560;SDS011;73534;52.584;13.392;2024-02-04T01:12:08;9.23;;;3.17;;
83560;SDS011;73534;52.584;13.392;2024-02-04T01:14:33;8.02;;;2.55;;
83560;SDS011;73534;52.584;13.392;2024-02-04T01:16:58;11.45;;;3.38;;
83560;SDS011;73534;52.584;13.392;2024-02-04T01:19:23;7.88;;;2.50;;
83560;SDS011;73534;52.584;13.392;2024-02-04T01:21:49;7.47;;;2.72;;
83560;SDS011;73534;52.584;13.392;2024-02-04T01:24:14;11.13;;;3.00;;
83560;SDS011;73534;52.584;13.392;2024-02-04T01:26:39;8.13;;;2.88;;
83560;SDS011;73534;52.584;13.392;2024-02-04T01:29:04;9.90;;;3.47;;
83560;SDS011;73534;52.584;13.392;2024-02-04T01:31:29;5.80;;;2.50;;
83560;SDS011;73534;52.584;13.392;2024-02-04T01:33:55;13.65;;;4.13;;
83560;SDS011;73534;52.584;13.392;2024-02-04T01:36:20;9.63;;;3.60;;
83560;SDS011;73534;52.584;13.392;2024-02-04T01:38:45;8.00;;;3.03;;
83560;SDS011;73534;52.584;13.392;2024-02-04T01:41:10;7.15;;;2.83;;
83560;SDS011;73534;52.584;13.392;2024-02-04T01:43:35;8.07;;;3.27;;
83560;SDS011;73534;52.584;13.392;2024-02-04T01:46:00;7.05;;;3.15;;
83560;SDS011;73534;52.584;13.392;2024-02-04T01:48:25;11.97;;;4.00;;
83560;SDS011;73534;52.584;13.392;2024-02-04T01:50:51;9.88;;;3.70;;
83560;SDS011;73534;52.584;13.392;2024-02-04T01:55:43;14.55;;;3.55;;
83560;SDS011;73534;52.584;13.392;2024-02-04T01:58:08;10.82;;;3.22;;
83560;SDS011;73534;52.584;13.392;2024-02-04T02:00:34;7.88;;;3.22;;
83560;SDS011;73534;52.584;13.392;2024-02-04T02:03:00;8.90;;;3.10;;
83560;SDS011;73534;52.584;13.392;2024-02-04T02:05:25;10.13;;;3.23;;
83560;SDS011;73534;52.584;13.392;2024-02-04T02:07:51;10.43;;;3.33;;
83560;SDS011;73534;52.584;13.392;2024-02-04T02:10:17;10.30;;;2.80;;
83560;SDS011;73534;52.584;13.392;2024-02-04T02:13:04;10.27;;;3.05;;
83560;SDS011;73534;52.584;13.392;2024-02-04T02:15:32;8.57;;;3.63;;
83560;SDS011;73534;52.584;13.392;2024-02-04T02:17:58;12.50;;;3.53;;
83560;SDS011;73534;52.584;13.392;2024-02-04T02:23:10;8.48;;;3.00;;
83560;SDS011;73534;52.584;13.392;2024-02-04T02:25:36;10.35;;;3.00;;
83560;SDS011;73534;52.584;13.392;2024-02-04T02:28:01;12.13;;;4.85;;
83560;SDS011;73534;52.584;13.392;2024-02-04T02:30:26;8.50;;;3.10;;
83560;SDS011;73534;52.584;13.392;2024-02-04T02:32:52;9.13;;;3.57;;
83560;SDS011;73534;52.584;13.392;2024-02-04T02:35:17;10.60;;;3.20;;
83560;SDS011;73534;52.584;13.392;2024-02-04T02:37:43;12.17;;;3.90;;
83560;SDS011;73534;52.584;13.392;2024-02-04T02:42:36;9.68;;;2.95;;
83560;SDS011;73534;52.584;13.392;2024-02-04T02:45:03;11.02;;;3.40;;
83560;SDS011;73534;52.584;13.392;2024-02-04T02:47:29;6.53;;;2.90;;
83560;SDS011;73534;52.584;13.392;2024-02-04T02:49:54;5.53;;;3.35;;
83560;SDS011;73534;52.584;13.392;2024-02-04T02:52:20;9.82;;;3.17;;
83560;SDS011;73534;52.584;13.392;2024-02-04T02:54:45;8.43;;;2.85;;
83560;SDS011;73534;52.584;13.392;2024-02-04T02:57:10;8.23;;;2.75;;
83560;SDS011;73534;52.584;13.392;2024-02-04T02:59:35;7.68;;;3.03;;
83560;SDS011;73534;52.584;13.392;2024-02-04T03:02:00;9.25;;;3.88;;
83560;SDS011;73534;52.584;13.392;2024-02-04T03:04:25;8.60;;;3.15;;
83560;SDS011;73534;52.584;13.392;2024-02-04T03:06:50;6.60;;;3.50;;
83560;SDS011;73534;52.584;13.392;2024-02-04T03:09:16;8.85;;;3.33;;
83560;SDS011;73534;52.584;13.392;2024-02-04T03:11:41;6.28;;;3.15;;
83560;SDS011;73534;52.584;13.392;2024-02-04T03:14:07;12.50;;;4.20;;
83560;SDS011;73534;52.584;13.392;2024-02-04T03:16:32;5.67;;;3.20;;
83560;SDS011;73534;52.584;13.392;2024-02-04T03:18:58;11.90;;;2.83;;
83560;SDS011;73534;52.584;13.392;2024-02-04T03:21:23;9.17;;;3.30;;
83560;SDS011;73534;52.584;13.392;2024-02-04T03:23:48;7.67;;;3.47;;
83560;SDS011;73534;52.584;13.392;2024-02-04T03:26:16;4.95;;;3.38;;
83560;SDS011;73534;52.584;13.392;2024-02-04T03:28:42;8.98;;;3.03;;
83560;SDS011;73534;52.584;13.392;2024-02-04T03:31:07;8.07;;;4.00;;
83560;SDS011;73534;52.584;13.392;2024-02-04T03:33:32;9.18;;;3.10;;
83560;SDS011;73534;52.584;13.392;2024-02-04T03:35:57;9.27;;;3.15;;
83560;SDS011;73534;52.584;13.392;2024-02-04T03:38:22;8.35;;;3.80;;
83560;SDS011;73534;52.584;13.392;2024-02-04T03:40:47;12.07;;;4.78;;
83560;SDS011;73534;52.584;13.392;2024-02-04T03:43:14;8.70;;;3.85;;
83560;SDS011;73534;52.584;13.392;2024-02-04T03:45:39;11.27;;;5.07;;
83560;SDS011;73534;52.584;13.392;2024-02-04T03:48:04;11.07;;;3.67;;
83560;SDS011;73534;52.584;13.392;2024-02-04T03:50:29;16.70;;;4.05;;
83560;SDS011;73534;52.584;13.392;2024-02-04T03:52:54;7.18;;;4.10;;
83560;SDS011;73534;52.584;13.392;2024-02-04T03:55:19;9.60;;;4.55;;
83560;SDS011;73534;52.584;13.392;2024-02-04T03:57:45;8.60;;;4.00;;
83560;SDS011;73534;52.584;13.392;2024-02-04T04:00:10;10.63;;;4.00;;
83560;SDS011;73534;52.584;13.392;2024-02-04T04:02:35;8.50;;;3.83;;
83560;SDS011;73534;52.584;13.392;2024-02-04T04:05:00;7.07;;;3.72;;
83560;SDS011;73534;52.584;13.392;2024-02-04T04:07:26;5.97;;;3.78;;
83560;SDS011;73534;52.584;13.392;2024-02-04T04:09:51;8.70;;;3.88;;
83560;SDS011;73534;52.584;13.392;2024-02-04T04:12:16;9.98;;;3.65;;
83560;SDS011;73534;52.584;13.392;2024-02-04T04:14:41;7.18;;;3.50;;
83560;SDS011;73534;52.584;13.392;2024-02-04T04:17:06;9.57;;;3.85;;
83560;SDS011;73534;52.584;13.392;2024-02-04T04:19:31;6.47;;;3.60;;
83560;SDS011;73534;52.584;13.392;2024-02-04T04:21:58;5.70;;;3.70;;
83560;SDS011;73534;52.584;13.392;2024-02-04T04:24:24;6.53;;;3.40;;
83560;SDS011;73534;52.584;13.392;2024-02-04T04:26:49;9.38;;;3.45;;
83560;SDS011;73534;52.584;13.392;2024-02-04T04:29:15;6.00;;;3.57;;
83560;SDS011;73534;52.584;13.392;2024-02-04T04:31:40;8.38;;;3.60;;
83560;SDS011;73534;52.584;13.392;2024-02-04T04:34:05;12.48;;;3.88;;
83560;SDS011;73534;52.584;13.392;2024-02-04T04:36:30;9.80;;;3.67;;
83560;SDS011;73534;52.584;13.392;2024-02-04T04:38:55;9.25;;;3.58;;
83560;SDS011;73534;52.584;13.392;2024-02-04T04:41:20;7.97;;;3.80;;
83560;SDS011;73534;52.584;13.392;2024-02-04T04:43:46;7.45;;;3.45;;
83560;SDS011;73534;52.584;13.392;2024-02-04T04:46:11;7.18;;;3.38;;
83560;SDS011;73534;52.584;13.392;2024-02-04T04:48:36;4.37;;;2.90;;
83560;SDS011;73534;52.584;13.392;2024-02-04T04:51:01;9.40;;;3.22;;
83560;SDS011;73534;52.584;13.392;2024-02-04T04:53:26;4.87;;;3.23;;
83560;SDS011;73534;52.584;13.392;2024-02-04T04:55:51;8.05;;;2.90;;
83560;SDS011;73534;52.584;13.392;2024-02-04T04:58:16;9.55;;;3.42;;
83560;SDS011;73534;52.584;13.392;2024-02-04T05:00:41;7.13;;;3.80;;
83560;SDS011;73534;52.584;13.392;2024-02-04T05:03:07;6.05;;;3.40;;
83560;SDS011;73534;52.584;13.392;2024-02-04T05:05:32;7.50;;;3.35;;
83560;SDS011;73534;52.584;13.392;2024-02-04T05:07:57;7.13;;;3.30;;
83560;SDS011;73534;52.584;13.392;2024-02-04T05:10:22;7.78;;;3.55;;
83560;SDS011;73534;52.584;13.392;2024-02-04T05:12:47;6.60;;;3.67;;
83560;SDS011;73534;52.584;13.392;2024-02-04T05:15:13;4.50;;;2.83;;
83560;SDS011;73534;52.584;13.392;2024-02-04T05:17:38;7.93;;;3.05;;
83560;SDS011;73534;52.584;13.392;2024-02-04T05:20:03;8.93;;;3.30;;
83560;SDS011;73534;52.584;13.392;2024-02-04T05:22:29;4.53;;;2.63;;
83560;SDS011;73534;52.584;13.392;2024-02-04T05:24:54;7.33;;;2.90;;
83560;SDS011;73534;52.584;13.392;2024-02-04T05:27:19;10.33;;;3.57;;
83560;SDS011;73534;52.584;13.392;2024-02-04T05:29:44;7.60;;;3.13;;
83560;SDS011;73534;52.584;13.392;2024-02-04T05:32:10;5.53;;;2.95;;
83560;SDS011;73534;52.584;13.392;2024-02-04T05:34:37;8.83;;;3.03;;
83560;SDS011;73534;52.584;13.392;2024-02-04T05:37:02;8.25;;;3.05;;
83560;SDS011;73534;52.584;13.392;2024-02-04T05:39:27;8.88;;;3.05;;
83560;SDS011;73534;52.584;13.392;2024-02-04T05:41:53;6.97;;;2.80;;
83560;SDS011;73534;52.584;13.392;2024-02-04T05:44:18;9.63;;;2.90;;
83560;SDS011;73534;52.584;13.392;2024-02-04T05:46:43;4.13;;;2.92;;
83560;SDS011;73534;52.584;13.392;2024-02-04T05:49:08;8.73;;;3.63;;
83560;SDS011;73534;52.584;13.392;2024-02-04T05:51:40;6.00;;;3.30;;
83560;SDS011;73534;52.584;13.392;2024-02-04T05:54:05;5.47;;;3.17;;
83560;SDS011;73534;52.584;13.392;2024-02-04T05:56:30;6.47;;;3.05;;
83560;SDS011;73534;52.584;13.392;2024-02-04T05:58:56;10.53;;;3.90;;
83560;SDS011;73534;52.584;13.392;2024-02-04T06:01:21;7.47;;;3.17;;
83560;SDS011;73534;52.584;13.392;2024-02-04T06:03:46;8.23;;;3.33;;
83560;SDS011;73534;52.584;13.392;2024-02-04T06:06:17;6.13;;;2.88;;
83560;SDS011;73534;52.584;13.392;2024-02-04T06:11:10;5.25;;;2.53;;
83560;SDS011;73534;52.584;13.392;2024-02-04T06:13:35;8.52;;;2.70;;
83560;SDS011;73534;52.584;13.392;2024-02-04T06:16:00;4.50;;;3.10;;
83560;SDS011;73534;52.584;13.392;2024-02-04T06:18:26;7.43;;;3.92;;
83560;SDS011;73534;52.584;13.392;2024-02-04T06:20:51;6.10;;;3.13;;
83560;SDS011;73534;52.584;13.392;2024-02-04T06:23:16;5.68;;;2.65;;
83560;SDS011;73534;52.584;13.392;2024-02-04T06:25:43;5.28;;;3.00;;
83560;SDS011;73534;52.584;13.392;2024-02-04T06:28:08;5.90;;;3.70;;
83560;SDS011;73534;52.584;13.392;2024-02-04T06:30:33;9.00;;;3.43;;
83560;SDS011;73534;52.584;13.392;2024-02-04T06:32:58;6.97;;;3.20;;
83560;SDS011;73534;52.584;13.392;2024-02-04T06:35:23;5.13;;;3.33;;
83560;SDS011;73534;52.584;13.392;2024-02-04T06:37:49;8.10;;;4.20;;
83560;SDS011;73534;52.584;13.392;2024-02-04T06:40:14;4.50;;;3.08;;
83560;SDS011;73534;52.584;13.392;2024-02-04T06:42:39;9.20;;;4.27;;
83560;SDS011;73534;52.584;13.392;2024-02-04T06:45:04;7.78;;;3.90;;
83560;SDS011;73534;52.584;13.392;2024-02-04T06:47:29;6.88;;;3.55;;
83560;SDS011;73534;52.584;13.392;2024-02-04T06:49:54;6.03;;;3.87;;
83560;SDS011;73534;52.584;13.392;2024-02-04T06:52:20;7.60;;;3.40;;
83560;SDS011;73534;52.584;13.392;2024-02-04T06:54:45;8.80;;;4.70;;
83560;SDS011;73534;52.584;13.392;2024-02-04T06:57:10;6.70;;;3.88;;
83560;SDS011;73534;52.584;13.392;2024-02-04T06:59:36;8.38;;;3.85;;
83560;SDS011;73534;52.584;13.392;2024-02-04T07:02:01;8.23;;;5.00;;
83560;SDS011;73534;52.584;13.392;2024-02-04T07:04:26;8.70;;;4.33;;
83560;SDS011;73534;52.584;13.392;2024-02-04T07:06:51;9.60;;;4.10;;
83560;SDS011;73534;52.584;13.392;2024-02-04T07:09:16;6.60;;;4.67;;
83560;SDS011;73534;52.584;13.392;2024-02-04T07:11:42;9.85;;;4.45;;
83560;SDS011;73534;52.584;13.392;2024-02-04T07:14:07;11.23;;;5.55;;
83560;SDS011;73534;52.584;13.392;2024-02-04T07:16:33;8.63;;;4.43;;
83560;SDS011;73534;52.584;13.392;2024-02-04T07:18:58;9.10;;;4.47;;
83560;SDS011;73534;52.584;13.392;2024-02-04T07:21:23;10.35;;;4.88;;
83560;SDS011;73534;52.584;13.392;2024-02-04T07:23:49;9.02;;;4.50;;
83560;SDS011;73534;52.584;13.392;2024-02-04T07:26:14;10.83;;;5.23;;
83560;SDS011;73534;52.584;13.392;2024-02-04T07:28:39;11.40;;;4.60;;
83560;SDS011;73534;52.584;13.392;2024-02-04T07:31:04;11.63;;;5.47;;
83560;SDS011;73534;52.584;13.392;2024-02-04T07:33:29;8.60;;;4.77;;
83560;SDS011;73534;52.584;13.392;2024-02-04T07:35:54;6.97;;;5.13;;
83560;SDS011;73534;52.584;13.392;2024-02-04T07:38:19;6.45;;;5.35;;
83560;SDS011;73534;52.584;13.392;2024-02-04T07:40:45;9.73;;;5.13;;
83560;SDS011;73534;52.584;13.392;2024-02-04T07:43:10;8.75;;;4.63;;
83560;SDS011;73534;52.584;13.392;2024-02-04T07:45:35;8.13;;;4.90;;
83560;SDS011;73534;52.584;13.392;2024-02-04T07:48:00;8.37;;;4.90;;
83560;SDS011;73534;52.584;13.392;2024-02-04T07:50:27;13.05;;;5.85;;
83560;SDS011;73534;52.584;13.392;2024-02-04T07:52:52;10.38;;;4.57;;
83560;SDS011;73534;52.584;13.392;2024-02-04T07:55:17;8.65;;;5.05;;
83560;SDS011;73534;52.584;13.392;2024-02-04T07:57:42;7.97;;;5.53;;
83560;SDS011;73534;52.584;13.392;2024-02-04T08:00:08;10.00;;;4.68;;
83560;SDS011;73534;52.584;13.392;2024-02-04T08:02:35;8.55;;;4.93;;
83560;SDS011;73534;52.584;13.392;2024-02-04T08:05:00;11.23;;;4.95;;
83560;SDS011;73534;52.584;13.392;2024-02-04T08:07:25;11.20;;;4.82;;
83560;SDS011;73534;52.584;13.392;2024-02-04T08:09:50;9.10;;;5.50;;
83560;SDS011;73534;52.584;13.392;2024-02-04T08:12:17;10.15;;;5.10;;
83560;SDS011;73534;52.584;13.392;2024-02-04T08:14:42;8.93;;;5.30;;
83560;SDS011;73534;52.584;13.392;2024-02-04T08:17:07;9.82;;;5.40;;
83560;SDS011;73534;52.584;13.392;2024-02-04T08:19:32;9.65;;;5.40;;
83560;SDS011;73534;52.584;13.392;2024-02-04T08:21:57;8.90;;;5.27;;
83560;SDS011;73534;52.584;13.392;2024-02-04T08:24:23;11.25;;;5.32;;
83560;SDS011;73534;52.584;13.392;2024-02-04T08:26:48;10.20;;;4.60;;
83560;SDS011;73534;52.584;13.392;2024-02-04T08:29:14;9.07;;;4.57;;
83560;SDS011;73534;52.584;13.392;2024-02-04T08:31:39;7.82;;;5.72;;
83560;SDS011;73534;52.584;13.392;2024-02-04T08:34:04;8.18;;;4.63;;
83560;SDS011;73534;52.584;13.392;2024-02-04T08:36:30;10.63;;;5.53;;
83560;SDS011;73534;52.584;13.392;2024-02-04T08:38:56;9.93;;;4.38;;
83560;SDS011;73534;52.584;13.392;2024-02-04T08:41:21;9.30;;;4.47;;
83560;SDS011;73534;52.584;13.392;2024-02-04T08:43:46;9.48;;;4.45;;
83560;SDS011;73534;52.584;13.392;2024-02-04T08:46:11;7.23;;;3.80;;
83560;SDS011;73534;52.584;13.392;2024-02-04T08:48:36;8.25;;;4.15;;
83560;SDS011;73534;52.584;13.392;2024-02-04T08:51:02;7.00;;;4.07;;
83560;SDS011;73534;52.584;13.392;2024-02-04T08:53:27;7.40;;;3.67;;
83560;SDS011;73534;52.584;13.392;2024-02-04T08:55:52;9.30;;;4.57;;
83560;SDS011;73534;52.584;13.392;2024-02-04T08:58:18;5.55;;;4.20;;
83560;SDS011;73534;52.584;13.392;2024-02-04T09:00:43;10.17;;;5.33;;
83560;SDS011;73534;52.584;13.392;2024-02-04T09:03:08;8.38;;;3.97;;
83560;SDS011;73534;52.584;13.392;2024-02-04T09:05:33;7.30;;;3.50;;
83560;SDS011;73534;52.584;13.392;2024-02-04T09:07:58;8.77;;;4.23;;
83560;SDS011;73534;52.584;13.392;2024-02-04T09:10:24;10.43;;;4.47;;
83560;SDS011;73534;52.584;13.392;2024-02-04T09:12:49;7.68;;;3.58;;
83560;SDS011;73534;52.584;13.392;2024-02-04T09:15:14;9.60;;;3.83;;
83560;SDS011;73534;52.584;13.392;2024-02-04T09:17:39;8.48;;;4.30;;
83560;SDS011;73534;52.584;13.392;2024-02-04T09:20:04;9.45;;;3.47;;
83560;SDS011;73534;52.584;13.392;2024-02-04T09:22:30;9.88;;;4.22;;
83560;SDS011;73534;52.584;13.392;2024-02-04T09:24:55;6.93;;;3.73;;
83560;SDS011;73534;52.584;13.392;2024-02-04T09:27:21;14.03;;;4.17;;
83560;SDS011;73534;52.584;13.392;2024-02-04T09:29:46;6.40;;;3.40;;
83560;SDS011;73534;52.584;13.392;2024-02-04T09:32:11;7.53;;;3.55;;
83560;SDS011;73534;52.584;13.392;2024-02-04T09:34:36;7.63;;;3.73;;
83560;SDS011;73534;52.584;13.392;2024-02-04T09:37:01;7.50;;;3.57;;
83560;SDS011;73534;52.584;13.392;2024-02-04T09:39:27;7.82;;;3.25;;
83560;SDS011;73534;52.584;13.392;2024-02-04T09:44:19;6.25;;;2.90;;
83560;SDS011;73534;52.584;13.392;2024-02-04T09:46:45;7.13;;;2.97;;
83560;SDS011;73534;52.584;13.392;2024-02-04T09:49:11;7.68;;;3.05;;
83560;SDS011;73534;52.584;13.392;2024-02-04T09:51:37;5.82;;;2.90;;
83560;SDS011;73534;52.584;13.392;2024-02-04T09:54:03;7.97;;;2.77;;
83560;SDS011;73534;52.584;13.392;2024-02-04T09:56:29;6.40;;;2.63;;
83560;SDS011;73534;52.584;13.392;2024-02-04T09:58:55;6.63;;;2.80;;
83560;SDS011;73534;52.584;13.392;2024-02-04T10:01:21;4.80;;;2.60;;
83560;SDS011;73534;52.584;13.392;2024-02-04T10:03:47;7.03;;;2.70;;
83560;SDS011;73534;52.584;13.392;2024-02-04T10:06:13;5.60;;;2.78;;
83560;SDS011;73534;52.584;13.392;2024-02-04T10:08:38;10.25;;;2.58;;
83560;SDS011;73534;52.584;13.392;2024-02-04T10:11:03;7.95;;;2.75;;
83560;SDS011;73534;52.584;13.392;2024-02-04T10:13:29;5.57;;;2.07;;
83560;SDS011;73534;52.584;13.392;2024-02-04T10:15:54;4.05;;;2.63;;
83560;SDS011;73534;52.584;13.392;2024-02-04T10:18:19;4.95;;;2.45;;
83560;SDS011;73534;52.584;13.392;2024-02-04T10:20:45;4.90;;;2.37;;
83560;SDS011;73534;52.584;13.392;2024-02-04T10:23:10;4.47;;;1.95;;
83560;SDS011;73534;52.584;13.392;2024-02-04T10:25:35;8.37;;;2.20;;
83560;SDS011;73534;52.584;13.392;2024-02-04T10:28:00;6.78;;;2.25;;
83560;SDS011;73534;52.584;13.392;2024-02-04T10:30:26;6.53;;;2.40;;
83560;SDS011;73534;52.584;13.392;2024-02-04T10:32:51;4.90;;;2.67;;
83560;SDS011;73534;52.584;13.392;2024-02-04T10:35:16;3.25;;;1.98;;
83560;SDS011;73534;52.584;13.392;2024-02-04T10:37:47;3.60;;;1.98;;
83560;SDS011;73534;52.584;13.392;2024-02-04T10:40:13;5.00;;;2.00;;
83560;SDS011;73534;52.584;13.392;2024-02-04T10:42:38;5.60;;;2.07;;
83560;SDS011;73534;52.584;13.392;2024-02-04T10:45:07;5.45;;;2.10;;
83560;SDS011;73534;52.584;13.392;2024-02-04T10:49:58;4.53;;;2.10;;
83560;SDS011;73534;52.584;13.392;2024-02-04T10:52:23;5.53;;;2.40;;
83560;SDS011;73534;52.584;13.392;2024-02-04T10:57:17;2.77;;;1.97;;
83560;SDS011;73534;52.584;13.392;2024-02-04T10:59:44;6.93;;;2.58;;
83560;SDS011;73534;52.584;13.392;2024-02-04T11:02:10;7.63;;;2.63;;
83560;SDS011;73534;52.584;13.392;2024-02-04T11:04:38;7.40;;;2.10;;
83560;SDS011;73534;52.584;13.392;2024-02-04T11:07:03;6.25;;;2.15;;
83560;SDS011;73534;52.584;13.392;2024-02-04T11:09:29;6.70;;;2.47;;
83560;SDS011;73534;52.584;13.392;2024-02-04T11:11:55;5.03;;;2.50;;
83560;SDS011;73534;52.584;13.392;2024-02-04T11:14:21;4.60;;;2.03;;
83560;SDS011;73534;52.584;13.392;2024-02-04T11:19:35;5.00;;;2.03;;
83560;SDS011;73534;52.584;13.392;2024-02-04T11:24:45;3.15;;;2.08;;
83560;SDS011;73534;52.584;13.392;2024-02-04T11:27:15;6.95;;;2.40;;
83560;SDS011;73534;52.584;13.392;2024-02-04T11:29:41;3.95;;;2.30;;
83560;SDS011;73534;52.584;13.392;2024-02-04T11:32:06;5.47;;;2.20;;
83560;SDS011;73534;52.584;13.392;2024-02-04T11:34:31;5.07;;;2.57;;
83560;SDS011;73534;52.584;13.392;2024-02-04T11:36:57;5.70;;;2.13;;
83560;SDS011;73534;52.584;13.392;2024-02-04T11:39:23;6.15;;;3.63;;
83560;SDS011;73534;52.584;13.392;2024-02-04T11:41:50;3.78;;;2.42;;
83560;SDS011;73534;52.584;13.392;2024-02-04T11:44:25;4.53;;;2.22;;
83560;SDS011;73534;52.584;13.392;2024-02-04T11:46:51;7.88;;;3.30;;
83560;SDS011;73534;52.584;13.392;2024-02-04T11:49:16;6.22;;;2.55;;
83560;SDS011;73534;52.584;13.392;2024-02-04T11:51:51;5.75;;;2.42;;
83560;SDS011;73534;52.584;13.392;2024-02-04T11:54:16;8.68;;;2.30;;
83560;SDS011;73534;52.584;13.392;2024-02-04T11:56:44;5.28;;;2.28;;
83560;SDS011;73534;52.584;13.392;2024-02-04T11:59:10;6.18;;;2.35;;
83560;SDS011;73534;52.584;13.392;2024-02-04T12:01:36;4.45;;;2.55;;
83560;SDS011;73534;52.584;13.392;2024-02-04T12:04:12;4.78;;;2.97;;
83560;SDS011;73534;52.584;13.392;2024-02-04T12:06:40;7.97;;;3.78;;
83560;SDS011;73534;52.584;13.392;2024-02-04T12:09:06;4.10;;;2.45;;
83560;SDS011;73534;52.584;13.392;2024-02-04T12:11:31;7.68;;;3.08;;
83560;SDS011;73534;52.584;13.392;2024-02-04T12:13:57;5.82;;;2.67;;
83560;SDS011;73534;52.584;13.392;2024-02-04T12:16:24;8.00;;;2.58;;
83560;SDS011;73534;52.584;13.392;2024-02-04T12:18:51;6.07;;;2.90;;
83560;SDS011;73534;52.584;13.392;2024-02-04T12:21:16;5.38;;;2.45;;
83560;SDS011;73534;52.584;13.392;2024-02-04T12:23:41;5.63;;;3.17;;
83560;SDS011;73534;52.584;13.392;2024-02-04T12:26:06;5.63;;;2.53;;
83560;SDS011;73534;52.584;13.392;2024-02-04T12:28:31;7.50;;;3.08;;
83560;SDS011;73534;52.584;13.392;2024-02-04T12:30:57;6.83;;;2.43;;
83560;SDS011;73534;52.584;13.392;2024-02-04T12:33:25;3.92;;;2.45;;
83560;SDS011;73534;52.584;13.392;2024-02-04T12:35:50;4.32;;;2.65;;
83560;SDS011;73534;52.584;13.392;2024-02-04T12:38:16;5.80;;;2.60;;
83560;SDS011;73534;52.584;13.392;2024-02-04T12:40:45;4.38;;;2.10;;
83560;SDS011;73534;52.584;13.392;2024-02-04T12:43:10;8.73;;;3.60;;
83560;SDS011;73534;52.584;13.392;2024-02-04T12:45:35;4.00;;;2.20;;
83560;SDS011;73534;52.584;13.392;2024-02-04T12:48:00;2.58;;;1.90;;
83560;SDS011;73534;52.584;13.392;2024-02-04T12:50:26;7.55;;;2.42;;
83560;SDS011;73534;52.584;13.392;2024-02-04T12:53:05;4.75;;;2.30;;
83560;SDS011;73534;52.584;13.392;2024-02-04T12:55:30;4.00;;;2.08;;
83560;SDS011;73534;52.584;13.392;2024-02-04T13:00:29;5.25;;;2.40;;
83560;SDS011;73534;52.584;13.392;2024-02-04T13:02:54;5.73;;;2.57;;
83560;SDS011;73534;52.584;13.392;2024-02-04T13:05:22;7.83;;;3.57;;
83560;SDS011;73534;52.584;13.392;2024-02-04T13:07:56;4.18;;;2.33;;
83560;SDS011;73534;52.584;13.392;2024-02-04T13:10:23;6.57;;;2.33;;
83560;SDS011;73534;52.584;13.392;2024-02-04T13:12:57;5.45;;;2.00;;
83560;SDS011;73534;52.584;13.392;2024-02-04T13:15:22;3.88;;;2.60;;
83560;SDS011;73534;52.584;13.392;2024-02-04T13:17:47;6.68;;;2.50;;
83560;SDS011;73534;52.584;13.392;2024-02-04T13:20:12;4.78;;;2.33;;
83560;SDS011;73534;52.584;13.392;2024-02-04T13:22:38;6.75;;;2.80;;
83560;SDS011;73534;52.584;13.392;2024-02-04T13:25:03;4.13;;;2.10;;
83560;SDS011;73534;52.584;13.392;2024-02-04T13:27:28;6.45;;;2.42;;
83560;SDS011;73534;52.584;13.392;2024-02-04T13:29:53;6.32;;;2.30;;
83560;SDS011;73534;52.584;13.392;2024-02-04T13:32:18;5.72;;;2.22;;
83560;SDS011;73534;52.584;13.392;2024-02-04T13:34:44;7.63;;;2.97;;
83560;SDS011;73534;52.584;13.392;2024-02-04T13:37:09;5.00;;;2.08;;
83560;SDS011;73534;52.584;13.392;2024-02-04T13:39:34;10.52;;;3.75;;
83560;SDS011;73534;52.584;13.392;2024-02-04T13:41:59;8.03;;;3.27;;
83560;SDS011;73534;52.584;13.392;2024-02-04T13:44:24;5.57;;;2.50;;
83560;SDS011;73534;52.584;13.392;2024-02-04T13:46:49;5.75;;;2.25;;
83560;SDS011;73534;52.584;13.392;2024-02-04T13:49:14;5.55;;;2.50;;
83560;SDS011;73534;52.584;13.392;2024-02-04T13:51:39;6.43;;;2.60;;
83560;SDS011;73534;52.584;13.392;2024-02-04T13:54:05;6.57;;;2.58;;
83560;SDS011;73534;52.584;13.392;2024-02-04T13:56:30;4.80;;;2.78;;
83560;SDS011;73534;52.584;13.392;2024-02-04T13:58:55;5.73;;;2.53;;
83560;SDS011;73534;52.584;13.392;2024-02-04T14:01:20;5.00;;;2.53;;
83560;SDS011;73534;52.584;13.392;2024-02-04T14:03:47;4.85;;;2.45;;
83560;SDS011;73534;52.584;13.392;2024-02-04T14:06:14;8.05;;;3.08;;
83560;SDS011;73534;52.584;13.392;2024-02-04T14:08:39;7.13;;;2.58;;
83560;SDS011;73534;52.584;13.392;2024-02-04T14:11:05;7.63;;;2.70;;
83560;SDS011;73534;52.584;13.392;2024-02-04T14:13:30;9.10;;;3.53;;
83560;SDS011;73534;52.584;13.392;2024-02-04T14:15:55;8.10;;;2.97;;
83560;SDS011;73534;52.584;13.392;2024-02-04T14:18:20;7.70;;;3.37;;
83560;SDS011;73534;52.584;13.392;2024-02-04T14:20:45;6.25;;;3.05;;
83560;SDS011;73534;52.584;13.392;2024-02-04T14:23:10;4.45;;;2.83;;
83560;SDS011;73534;52.584;13.392;2024-02-04T14:25:35;6.00;;;2.40;;
83560;SDS011;73534;52.584;13.392;2024-02-04T14:28:01;6.07;;;2.42;;
83560;SDS011;73534;52.584;13.392;2024-02-04T14:30:26;4.57;;;3.05;;
83560;SDS011;73534;52.584;13.392;2024-02-04T14:32:51;6.70;;;2.60;;
83560;SDS011;73534;52.584;13.392;2024-02-04T14:35:16;4.20;;;2.17;;
83560;SDS011;73534;52.584;13.392;2024-02-04T14:37:42;11.17;;;2.77;;
83560;SDS011;73534;52.584;13.392;2024-02-04T14:40:07;5.30;;;2.63;;
83560;SDS011;73534;52.584;13.392;2024-02-04T14:42:33;6.35;;;3.28;;
83560;SDS011;73534;52.584;13.392;2024-02-04T14:44:58;5.90;;;2.30;;
83560;SDS011;73534;52.584;13.392;2024-02-04T14:47:25;6.95;;;2.95;;
83560;SDS011;73534;52.584;13.392;2024-02-04T14:49:50;7.73;;;3.37;;